Time;durP1;ratioP1;P1;durP2;ratioP2;P2;SDS_P1;SDS_P2;PMS_P1;PMS_P2;Temp;Humidity;BMP_temperature;BMP_pressure;BME280_temperature;BME280_humidity;BME280_pressure;Samples;Min_cycle;Max_cycle;Signal;HPM_P1;HPM_P2
2024/03/10 00:01:26;;;;;;;33.80;21.73;;;3.20;99.90;;;;;;4963225;28;21356;-81
2024/03/10 00:03:56;;;;;;;37.13;21.85;;;3.20;99.90;;;;;;4941382;28;20026;-78
2024/03/10 00:06:21;;;;;;;38.22;22.23;;;3.20;99.90;;;;;;4931481;28;20025;-80
2024/03/10 00:08:47;;;;;;;34.72;21.75;;;3.10;99.90;;;;;;4936706;28;21606;-80
2024/03/10 00:11:17;;;;;;;30.88;19.15;;;3.10;99.90;;;;;;4951858;28;20045;-80
2024/03/10 00:13:43;;;;;;;36.15;20.85;;;3.10;99.90;;;;;;4941576;28;20041;-78
2024/03/10 00:16:09;;;;;;;37.85;20.95;;;3.10;99.90;;;;;;4957279;28;20072;-79
2024/03/10 00:18:36;;;;;;;37.78;22.05;;;3.10;99.90;;;;;;4960015;28;20038;-80
2024/03/10 00:21:02;;;;;;;39.65;22.40;;;3.10;99.90;;;;;;4918750;28;20034;-80
2024/03/10 00:23:28;;;;;;;37.67;22.20;;;3.10;99.90;;;;;;4942943;28;20479;-78
2024/03/10 00:25:53;;;;;;;38.15;21.85;;;3.10;99.90;;;;;;4960406;28;20076;-80
2024/03/10 00:28:19;;;;;;;37.55;22.58;;;3.10;99.90;;;;;;4956629;28;20022;-80
2024/03/10 00:30:48;;;;;;;39.25;22.15;;;3.00;99.90;;;;;;4977935;28;20030;-80
2024/03/10 00:33:13;;;;;;;42.08;23.70;;;3.00;99.90;;;;;;4923313;28;20684;-79
2024/03/10 00:35:39;;;;;;;38.53;22.25;;;3.00;99.90;;;;;;4932134;28;20030;-80
2024/03/10 00:38:04;;;;;;;39.50;22.23;;;3.00;99.90;;;;;;4977818;28;20045;-81
2024/03/10 00:40:30;;;;;;;40.60;23.35;;;3.00;99.90;;;;;;4955905;28;21704;-79
2024/03/10 00:42:56;;;;;;;44.95;24.85;;;3.00;99.90;;;;;;4998250;28;20892;-80
2024/03/10 00:45:24;;;;;;;41.40;24.80;;;3.00;99.90;;;;;;4970024;28;20023;-79
2024/03/10 00:47:51;;;;;;;40.50;23.40;;;3.10;99.90;;;;;;4952550;28;20029;-80
2024/03/10 00:50:17;;;;;;;40.83;22.63;;;3.00;99.90;;;;;;4960725;28;20449;-80
2024/03/10 00:52:42;;;;;;;39.30;22.65;;;3.00;99.90;;;;;;4974202;28;20037;-80
2024/03/10 00:55:10;;;;;;;41.55;24.85;;;3.00;99.90;;;;;;4987103;28;20077;-79
2024/03/10 00:57:37;;;;;;;43.50;23.83;;;3.00;99.90;;;;;;4984785;28;20030;-80
2024/03/10 01:00:04;;;;;;;41.28;23.45;;;3.00;99.90;;;;;;4965166;28;20030;-80
2024/03/10 01:02:30;;;;;;;37.22;23.90;;;2.90;99.90;;;;;;4969123;28;20041;-80
2024/03/10 01:04:55;;;;;;;37.60;22.60;;;2.90;99.90;;;;;;4950287;28;20018;-80
2024/03/10 01:07:21;;;;;;;37.45;22.42;;;2.90;99.90;;;;;;4971117;28;20030;-79
2024/03/10 01:09:46;;;;;;;37.35;22.83;;;2.90;99.90;;;;;;4978056;28;20034;-80
2024/03/10 01:12:12;;;;;;;39.53;22.10;;;2.90;99.90;;;;;;4973230;28;20033;-80
2024/03/10 01:14:38;;;;;;;43.45;24.17;;;2.90;99.90;;;;;;4950790;28;20023;-78
2024/03/10 01:17:04;;;;;;;43.20;23.15;;;2.90;99.90;;;;;;4951391;28;20037;-79
2024/03/10 01:19:34;;;;;;;38.30;24.02;;;2.90;99.90;;;;;;4971605;28;21235;-80
2024/03/10 01:21:59;;;;;;;41.10;23.45;;;2.90;99.90;;;;;;4964317;28;20036;-79
2024/03/10 01:24:25;;;;;;;39.08;23.20;;;2.90;99.90;;;;;;4951580;28;20030;-78
2024/03/10 01:26:51;;;;;;;35.33;21.15;;;2.90;99.90;;;;;;4950049;28;20049;-80
2024/03/10 01:29:17;;;;;;;40.40;23.98;;;2.80;99.90;;;;;;4954251;28;20035;-80
2024/03/10 01:31:42;;;;;;;36.22;21.35;;;2.80;99.90;;;;;;4948628;28;20042;-81
2024/03/10 01:34:11;;;;;;;37.40;21.92;;;2.80;99.90;;;;;;4965724;28;20164;-78
2024/03/10 01:36:37;;;;;;;35.28;20.42;;;2.80;99.90;;;;;;4974711;28;20041;-80
2024/03/10 01:39:03;;;;;;;39.95;23.23;;;2.80;99.90;;;;;;4968306;28;20030;-80
2024/03/10 01:41:31;;;;;;;36.85;22.33;;;2.80;99.90;;;;;;4959238;28;20026;-80
2024/03/10 01:43:57;;;;;;;39.50;23.02;;;2.80;99.90;;;;;;4919822;28;20659;-79
2024/03/10 01:46:23;;;;;;;34.47;22.20;;;2.80;99.90;;;;;;4943852;28;20103;-81
2024/03/10 01:48:49;;;;;;;38.08;21.42;;;2.80;99.90;;;;;;4974992;28;20037;-81
2024/03/10 01:51:15;;;;;;;38.13;22.13;;;2.80;99.90;;;;;;4973934;28;20030;-81
2024/03/10 01:53:41;;;;;;;35.92;21.70;;;2.80;99.90;;;;;;4966055;28;20034;-79
2024/03/10 01:56:07;;;;;;;37.00;22.13;;;2.80;99.90;;;;;;4956656;28;20080;-80
2024/03/10 01:58:35;;;;;;;34.40;21.17;;;2.80;99.90;;;;;;4944188;28;20171;-81
2024/03/10 02:01:02;;;;;;;37.20;21.02;;;2.80;99.90;;;;;;4974394;28;20018;-80
2024/03/10 02:03:29;;;;;;;36.53;21.58;;;2.80;99.90;;;;;;4953391;28;20057;-78
2024/03/10 02:05:54;;;;;;;36.90;21.55;;;2.80;99.90;;;;;;4972842;28;20064;-81
2024/03/10 02:08:20;;;;;;;42.15;22.20;;;2.80;99.90;;;;;;4958378;28;20041;-79
2024/03/10 02:10:48;;;;;;;38.60;22.73;;;2.80;99.90;;;;;;4943953;28;20855;-81
2024/03/10 02:13:14;;;;;;;37.33;20.98;;;2.80;99.90;;;;;;4942314;28;20034;-80
2024/03/10 02:15:40;;;;;;;41.13;23.77;;;2.80;99.90;;;;;;4970044;28;20021;-80
2024/03/10 02:18:05;;;;;;;41.38;22.42;;;2.80;99.90;;;;;;4971465;28;20100;-80
2024/03/10 02:20:32;;;;;;;35.75;22.38;;;2.80;99.90;;;;;;4976698;28;20056;-82
2024/03/10 02:22:59;;;;;;;39.85;23.00;;;2.70;99.90;;;;;;4954356;28;20035;-80
2024/03/10 02:25:34;;;;;;;43.60;22.92;;;2.70;99.90;;;;;;4963086;28;21783;-81
2024/03/10 02:28:09;;;;;;;41.50;22.13;;;2.70;99.90;;;;;;4979253;28;20478;-81
2024/03/10 02:30:55;;;;;;;36.75;21.88;;;2.70;99.90;;;;;;4976768;28;20030;-81
2024/03/10 02:47:12;;;;;;;40.83;23.08;;;2.80;99.90;;;;;;4952832;28;20081;-80
2024/03/10 02:49:38;;;;;;;45.83;23.25;;;2.80;99.90;;;;;;4951113;28;20018;-80
2024/03/10 02:52:05;;;;;;;41.38;22.05;;;2.70;99.90;;;;;;4959056;28;20045;-80
2024/03/10 02:54:30;;;;;;;37.17;23.42;;;2.80;99.90;;;;;;4951606;28;20026;-80
2024/03/10 02:56:56;;;;;;;41.95;24.38;;;2.80;99.90;;;;;;4956550;28;20034;-80
2024/03/10 02:59:22;;;;;;;40.83;23.05;;;2.70;99.90;;;;;;4959827;28;20025;-80
2024/03/10 03:01:47;;;;;;;39.53;23.80;;;2.70;99.90;;;;;;4944552;28;20041;-80
2024/03/10 03:04:13;;;;;;;44.25;24.02;;;2.70;99.90;;;;;;4938776;28;20030;-80
2024/03/10 03:06:38;;;;;;;42.65;23.48;;;2.70;99.90;;;;;;4964042;28;20029;-81
2024/03/10 03:09:05;;;;;;;40.08;23.63;;;2.70;99.90;;;;;;4958854;28;20040;-82
2024/03/10 03:11:31;;;;;;;47.45;23.73;;;2.70;99.90;;;;;;4965463;28;20033;-82
2024/03/10 03:13:57;;;;;;;41.80;24.00;;;2.70;99.90;;;;;;4944762;28;20507;-81
2024/03/10 03:16:23;;;;;;;40.08;23.17;;;2.70;99.90;;;;;;4921750;28;20034;-82
2024/03/10 03:18:48;;;;;;;39.50;22.73;;;2.70;99.90;;;;;;4971338;28;20848;-81
2024/03/10 03:21:14;;;;;;;37.53;23.48;;;2.70;99.90;;;;;;4956488;28;20030;-80
2024/03/10 03:23:39;;;;;;;39.30;23.17;;;2.70;99.90;;;;;;4951400;28;20041;-79
2024/03/10 03:26:05;;;;;;;42.25;23.98;;;2.70;99.90;;;;;;4952635;28;20021;-81
2024/03/10 03:28:30;;;;;;;44.33;24.02;;;2.70;99.90;;;;;;4925551;28;21475;-81
2024/03/10 03:30:56;;;;;;;40.92;24.80;;;2.70;99.90;;;;;;4976891;28;20038;-81
2024/03/10 03:33:22;;;;;;;40.85;24.20;;;2.70;99.90;;;;;;4965867;28;20044;-81
2024/03/10 03:35:48;;;;;;;42.53;23.63;;;2.70;99.90;;;;;;4957700;28;20085;-81
2024/03/10 03:38:14;;;;;;;40.70;22.88;;;2.70;99.90;;;;;;4959346;28;20552;-81
2024/03/10 03:40:39;;;;;;;39.72;23.08;;;2.70;99.90;;;;;;4921508;28;20117;-81
2024/03/10 03:43:05;;;;;;;42.58;25.10;;;2.70;99.90;;;;;;4953642;28;20112;-79
2024/03/10 03:45:31;;;;;;;41.85;23.73;;;2.70;99.90;;;;;;4948064;28;20087;-78
2024/03/10 03:47:57;;;;;;;44.45;23.63;;;2.70;99.90;;;;;;4949748;28;20017;-81
2024/03/10 03:50:23;;;;;;;42.38;22.73;;;2.70;99.90;;;;;;4954944;28;20088;-81
2024/03/10 03:52:52;;;;;;;41.85;25.80;;;2.70;99.90;;;;;;4939991;28;20022;-81
2024/03/10 03:55:18;;;;;;;37.63;22.73;;;2.70;99.90;;;;;;4916729;28;20062;-80
2024/03/10 03:57:45;;;;;;;41.58;24.90;;;2.70;99.90;;;;;;4954393;28;21732;-81
2024/03/10 04:00:12;;;;;;;36.70;23.90;;;2.60;99.90;;;;;;4967542;28;20494;-81
2024/03/10 04:02:38;;;;;;;47.00;25.50;;;2.70;99.90;;;;;;4942969;28;20289;-81
2024/03/10 04:05:07;;;;;;;39.30;23.95;;;2.70;99.90;;;;;;4928591;28;20082;-81
2024/03/10 04:07:32;;;;;;;37.70;23.55;;;2.70;99.90;;;;;;4933886;28;21393;-82
2024/03/10 04:09:58;;;;;;;44.83;24.23;;;2.70;99.90;;;;;;4938434;28;20056;-81
2024/03/10 04:12:24;;;;;;;40.90;23.88;;;2.60;99.90;;;;;;4940910;28;20486;-79
2024/03/10 04:14:49;;;;;;;38.78;22.58;;;2.60;99.90;;;;;;4930175;28;20061;-81
2024/03/10 04:17:15;;;;;;;41.10;23.45;;;2.60;99.90;;;;;;4955173;28;20084;-81
2024/03/10 04:19:40;;;;;;;38.10;23.05;;;2.60;99.90;;;;;;4933646;28;20390;-82
2024/03/10 04:22:09;;;;;;;39.42;23.90;;;2.60;99.90;;;;;;4962133;28;20028;-80
2024/03/10 04:24:36;;;;;;;42.70;24.00;;;2.50;99.90;;;;;;4935025;28;20034;-81
2024/03/10 04:27:02;;;;;;;45.95;24.88;;;2.50;99.90;;;;;;4959010;28;21317;-80
2024/03/10 04:29:28;;;;;;;42.17;24.45;;;2.50;99.90;;;;;;4956521;28;20022;-81
2024/03/10 04:31:54;;;;;;;45.10;24.30;;;2.50;99.90;;;;;;4939656;28;20039;-81
2024/03/10 04:34:19;;;;;;;38.22;23.90;;;2.60;99.90;;;;;;4920280;28;20024;-81
2024/03/10 04:36:45;;;;;;;42.78;24.58;;;2.50;99.90;;;;;;4945811;28;20702;-81
2024/03/10 04:39:10;;;;;;;37.83;22.60;;;2.50;99.90;;;;;;4967752;28;20025;-81
2024/03/10 04:41:36;;;;;;;41.20;24.30;;;2.50;99.90;;;;;;4957915;28;20490;-81
2024/03/10 04:44:02;;;;;;;44.95;23.10;;;2.50;99.90;;;;;;4937318;28;20053;-81
2024/03/10 04:46:28;;;;;;;44.90;24.05;;;2.60;99.90;;;;;;4928624;28;20034;-80
2024/03/10 04:48:57;;;;;;;37.55;23.00;;;2.60;99.90;;;;;;4972680;28;20026;-81
2024/03/10 04:51:24;;;;;;;40.00;23.75;;;2.60;99.90;;;;;;4973855;28;20045;-81
2024/03/10 04:53:50;;;;;;;46.85;24.63;;;2.50;99.90;;;;;;4921391;28;20040;-78
2024/03/10 04:56:16;;;;;;;34.30;22.15;;;2.60;99.90;;;;;;4957390;28;20065;-81
2024/03/10 04:58:45;;;;;;;39.95;23.00;;;2.60;99.90;;;;;;4927256;28;20045;-81
2024/03/10 05:01:11;;;;;;;39.47;23.30;;;2.60;99.90;;;;;;4922756;28;20030;-79
2024/03/10 05:03:37;;;;;;;38.58;23.23;;;2.50;99.90;;;;;;4943324;28;20633;-81
2024/03/10 05:06:03;;;;;;;44.55;24.17;;;2.50;99.90;;;;;;4948324;28;20034;-81
2024/03/10 05:08:29;;;;;;;43.88;24.25;;;2.50;99.90;;;;;;4957937;28;20045;-82
2024/03/10 05:10:55;;;;;;;45.15;24.48;;;2.60;99.90;;;;;;4915298;28;20030;-81
2024/03/10 05:13:20;;;;;;;44.58;24.27;;;2.60;99.90;;;;;;4922479;28;20691;-82
2024/03/10 05:15:47;;;;;;;41.08;23.80;;;2.60;99.90;;;;;;4959612;28;22282;-80
2024/03/10 05:18:13;;;;;;;40.50;22.65;;;2.60;99.90;;;;;;4969791;28;20045;-81
2024/03/10 05:20:38;;;;;;;42.60;26.13;;;2.60;99.90;;;;;;4940002;28;20034;-79
2024/03/10 05:23:04;;;;;;;39.33;22.73;;;2.60;99.90;;;;;;4948266;28;20042;-81
2024/03/10 05:25:30;;;;;;;44.65;23.83;;;2.60;99.90;;;;;;4948788;28;20044;-82
2024/03/10 05:27:55;;;;;;;39.45;22.45;;;2.60;99.90;;;;;;4972498;28;20037;-81
2024/03/10 05:30:21;;;;;;;42.30;22.88;;;2.60;99.90;;;;;;4951552;28;20034;-82
2024/03/10 05:32:47;;;;;;;42.08;24.63;;;2.60;99.90;;;;;;4950399;28;20038;-81
2024/03/10 05:35:14;;;;;;;42.60;23.52;;;2.60;99.90;;;;;;4937841;28;20589;-81
2024/03/10 05:37:41;;;;;;;41.38;24.55;;;2.60;99.90;;;;;;4933540;28;20501;-81
2024/03/10 05:40:08;;;;;;;38.22;21.98;;;2.60;99.90;;;;;;4940405;28;20744;-79
2024/03/10 05:42:34;;;;;;;48.03;24.98;;;2.60;99.90;;;;;;4949218;28;20053;-81
2024/03/10 05:45:02;;;;;;;36.97;23.55;;;2.60;99.90;;;;;;4953868;28;21193;-82
2024/03/10 05:47:28;;;;;;;40.35;24.27;;;2.60;99.90;;;;;;4947940;28;20265;-80
2024/03/10 05:49:55;;;;;;;40.88;23.27;;;2.60;99.90;;;;;;4949376;28;20778;-80
2024/03/10 05:52:21;;;;;;;40.63;23.23;;;2.60;99.90;;;;;;4930977;28;20029;-82
2024/03/10 05:54:47;;;;;;;45.65;23.33;;;2.60;99.90;;;;;;4950399;28;21613;-81
2024/03/10 05:57:16;;;;;;;38.20;23.00;;;2.70;99.90;;;;;;4944556;28;20014;-81
2024/03/10 05:59:45;;;;;;;45.13;24.02;;;2.70;99.90;;;;;;4876604;28;20044;-79
2024/03/10 06:02:13;;;;;;;38.80;23.75;;;2.70;99.90;;;;;;4916310;28;20054;-82
2024/03/10 06:04:43;;;;;;;43.30;24.13;;;2.80;99.90;;;;;;4882945;28;20112;-81
2024/03/10 06:07:10;;;;;;;44.72;25.15;;;2.80;99.90;;;;;;4896679;28;20030;-79
2024/03/10 06:09:35;;;;;;;39.83;22.92;;;2.80;99.90;;;;;;4919368;28;20018;-82
2024/03/10 06:12:02;;;;;;;41.17;23.30;;;2.80;99.90;;;;;;4926444;28;21671;-82
2024/03/10 06:14:29;;;;;;;41.78;24.60;;;2.80;99.90;;;;;;4918166;28;20037;-81
2024/03/10 06:16:56;;;;;;;40.95;22.52;;;2.90;99.90;;;;;;4892982;28;20034;-81
2024/03/10 06:27:35;;;;;;;40.60;24.15;;;3.00;99.90;;;;;;4940950;28;20112;-81
2024/03/10 06:30:00;;;;;;;38.08;22.90;;;3.00;99.90;;;;;;4884282;28;21596;-82
2024/03/10 06:32:26;;;;;;;43.10;24.48;;;3.00;99.90;;;;;;4916919;28;20045;-81
2024/03/10 06:34:52;;;;;;;41.50;23.70;;;3.10;99.90;;;;;;4891636;28;20443;-81
2024/03/10 06:37:19;;;;;;;46.30;24.98;;;3.10;99.90;;;;;;4892357;28;20022;-82
2024/03/10 06:39:45;;;;;;;42.72;23.63;;;3.10;99.90;;;;;;4953137;28;21783;-80
2024/03/10 06:42:11;;;;;;;44.22;23.73;;;3.10;99.90;;;;;;4904194;28;20530;-81
2024/03/10 06:44:37;;;;;;;37.63;23.42;;;3.20;99.90;;;;;;4911602;28;20030;-82
2024/03/10 06:47:04;;;;;;;41.55;25.55;;;3.20;99.90;;;;;;4883559;28;20026;-81
2024/03/10 06:49:29;;;;;;;38.65;23.45;;;3.20;99.90;;;;;;4876038;28;21525;-80
2024/03/10 06:51:55;;;;;;;40.85;22.63;;;3.30;99.90;;;;;;4944626;28;20038;-80
2024/03/10 06:54:23;;;;;;;47.35;25.45;;;3.40;99.90;;;;;;4902334;28;20029;-80
2024/03/10 06:56:49;;;;;;;40.45;25.20;;;3.40;99.90;;;;;;4872820;28;20029;-82
2024/03/10 06:59:15;;;;;;;43.33;24.42;;;3.50;99.90;;;;;;4904506;28;20550;-81
2024/03/10 07:01:44;;;;;;;44.13;24.85;;;3.50;99.90;;;;;;4896320;28;20033;-83
2024/03/10 07:04:11;;;;;;;37.10;23.80;;;3.50;99.90;;;;;;4874871;28;20126;-78
2024/03/10 07:06:39;;;;;;;43.25;24.88;;;3.60;99.90;;;;;;4923816;28;20026;-80
2024/03/10 07:09:08;;;;;;;38.22;23.35;;;3.60;99.90;;;;;;5001760;28;20049;-79
2024/03/10 07:11:35;;;;;;;42.80;24.20;;;3.70;99.90;;;;;;4957687;28;20367;-80
2024/03/10 07:14:01;;;;;;;42.30;25.25;;;3.70;99.90;;;;;;4948676;28;20040;-80
2024/03/10 07:16:27;;;;;;;44.65;23.98;;;3.70;99.90;;;;;;4911569;28;20029;-80
2024/03/10 07:18:52;;;;;;;44.10;23.75;;;3.80;99.90;;;;;;4918313;28;20390;-80
2024/03/10 07:21:18;;;;;;;43.65;25.25;;;3.90;99.90;;;;;;4979273;28;20035;-81
2024/03/10 07:23:43;;;;;;;43.83;22.92;;;3.90;99.90;;;;;;4899893;28;20021;-80
2024/03/10 07:26:09;;;;;;;40.78;25.13;;;3.90;99.90;;;;;;4894436;28;20474;-80
2024/03/10 07:28:34;;;;;;;41.55;24.73;;;4.00;99.90;;;;;;4942204;28;20026;-80
2024/03/10 07:31:00;;;;;;;40.60;23.23;;;4.10;99.90;;;;;;4896082;28;20053;-81
2024/03/10 07:33:25;;;;;;;36.28;22.88;;;4.10;99.90;;;;;;4964542;28;20036;-78
2024/03/10 07:35:51;;;;;;;36.22;22.38;;;4.20;99.90;;;;;;4946922;28;20113;-80
2024/03/10 07:38:17;;;;;;;38.97;24.08;;;4.20;99.90;;;;;;4984684;28;20083;-80
2024/03/10 07:40:42;;;;;;;39.10;21.88;;;4.30;99.90;;;;;;4975111;28;20128;-81
2024/03/10 07:43:08;;;;;;;36.65;22.30;;;4.30;99.90;;;;;;4968001;28;20500;-79
2024/03/10 07:45:35;;;;;;;40.67;22.52;;;4.40;99.90;;;;;;4974915;28;20022;-80
2024/03/10 07:48:03;;;;;;;35.33;23.08;;;4.50;99.90;;;;;;4992874;28;20037;-80
2024/03/10 07:50:29;;;;;;;41.13;24.20;;;4.60;99.90;;;;;;4988122;28;20084;-81
2024/03/10 07:52:55;;;;;;;33.20;21.80;;;4.60;99.90;;;;;;4973122;28;20414;-81
2024/03/10 07:55:21;;;;;;;41.08;23.20;;;4.70;99.90;;;;;;4976521;28;20045;-81
2024/03/10 07:57:48;;;;;;;37.90;24.27;;;4.70;99.90;;;;;;4966568;28;20540;-81
2024/03/10 08:00:20;;;;;;;37.85;22.38;;;4.80;99.90;;;;;;4995236;28;20022;-81
2024/03/10 08:02:45;;;;;;;37.42;21.75;;;4.90;99.90;;;;;;4979496;28;20050;-78
2024/03/10 08:05:12;;;;;;;41.80;24.63;;;5.00;99.90;;;;;;4986815;28;20022;-80
2024/03/10 08:07:41;;;;;;;39.67;23.85;;;5.00;99.90;;;;;;4983405;28;20025;-80
2024/03/10 08:10:08;;;;;;;39.38;23.45;;;5.10;99.90;;;;;;4973364;28;20631;-80
2024/03/10 08:12:34;;;;;;;37.17;22.92;;;5.20;99.90;;;;;;4981250;28;20397;-80
2024/03/10 08:15:02;;;;;;;38.78;23.60;;;5.20;99.90;;;;;;4985881;28;20030;-80
2024/03/10 08:17:28;;;;;;;42.13;24.77;;;5.30;99.90;;;;;;4989092;28;20033;-80
2024/03/10 08:19:54;;;;;;;41.60;23.50;;;5.40;99.90;;;;;;4969967;28;20061;-81
2024/03/10 08:22:20;;;;;;;38.53;23.90;;;5.50;99.90;;;;;;4982638;28;20064;-80
2024/03/10 08:24:46;;;;;;;38.20;23.33;;;5.60;99.90;;;;;;4979508;28;20672;-81
2024/03/10 08:27:12;;;;;;;38.25;23.00;;;5.70;99.90;;;;;;5000942;28;20049;-80
2024/03/10 08:29:38;;;;;;;38.53;23.50;;;5.80;99.90;;;;;;5010587;28;20028;-81
2024/03/10 08:32:04;;;;;;;37.55;22.60;;;6.00;99.90;;;;;;5001806;28;20494;-80
2024/03/10 08:34:29;;;;;;;35.72;22.70;;;6.10;99.90;;;;;;4990405;28;20125;-80
2024/03/10 08:36:55;;;;;;;38.67;23.73;;;6.20;99.90;;;;;;5003380;28;20049;-79
2024/03/10 08:39:21;;;;;;;37.88;23.20;;;6.40;99.90;;;;;;5009526;28;20033;-80
2024/03/10 08:41:48;;;;;;;35.72;23.13;;;6.50;99.90;;;;;;4997697;28;20041;-79
2024/03/10 08:44:15;;;;;;;37.45;24.13;;;6.70;99.90;;;;;;5008347;28;20061;-80
2024/03/10 08:46:41;;;;;;;34.10;22.73;;;6.80;99.90;;;;;;5017848;28;20032;-81
2024/03/10 08:49:08;;;;;;;34.53;22.13;;;6.90;99.90;;;;;;4990990;28;20037;-80
2024/03/10 08:51:34;;;;;;;34.13;22.27;;;7.10;99.90;;;;;;4988557;28;20117;-80
2024/03/10 08:54:00;;;;;;;37.13;23.40;;;7.20;99.90;;;;;;4991895;28;21901;-81
2024/03/10 08:56:26;;;;;;;35.65;22.98;;;7.40;99.90;;;;;;5006992;28;20650;-81
2024/03/10 08:58:53;;;;;;;34.25;21.48;;;7.40;99.90;;;;;;5005801;28;20033;-81
2024/03/10 09:01:18;;;;;;;39.20;22.38;;;7.50;99.90;;;;;;4987953;28;20129;-79
2024/03/10 09:03:44;;;;;;;32.67;21.55;;;7.60;99.90;;;;;;5004298;28;20054;-80
2024/03/10 09:06:10;;;;;;;36.70;22.73;;;7.70;99.90;;;;;;5000122;28;20132;-82
2024/03/10 09:08:35;;;;;;;31.55;20.38;;;7.90;99.90;;;;;;5031290;28;20026;-81
2024/03/10 09:11:06;;;;;;;31.73;20.63;;;8.00;99.90;;;;;;5017839;28;20072;-80
2024/03/10 09:13:32;;;;;;;31.05;21.73;;;8.00;99.90;;;;;;5002047;28;20036;-81
2024/03/10 09:15:59;;;;;;;35.40;22.05;;;8.10;99.90;;;;;;4982074;28;20022;-80
2024/03/10 09:18:25;;;;;;;31.40;20.83;;;8.10;99.90;;;;;;4989882;28;20405;-79
2024/03/10 09:20:51;;;;;;;34.33;21.27;;;8.20;99.90;;;;;;5007601;28;20030;-81
2024/03/10 09:23:17;;;;;;;32.08;20.60;;;8.30;99.90;;;;;;5013438;28;20027;-79
2024/03/10 09:25:42;;;;;;;33.90;20.70;;;8.30;99.90;;;;;;5009683;28;20076;-80
2024/03/10 09:28:08;;;;;;;28.90;19.42;;;8.40;99.90;;;;;;5012841;28;20037;-81
2024/03/10 09:30:33;;;;;;;34.45;21.17;;;8.40;99.90;;;;;;5013424;28;20038;-80
2024/03/10 09:32:59;;;;;;;27.98;19.75;;;8.50;99.90;;;;;;5008219;28;20061;-81
2024/03/10 09:35:27;;;;;;;34.00;22.02;;;8.70;99.90;;;;;;5004512;28;20900;-82
2024/03/10 09:38:15;;;;;;;31.05;20.50;;;8.80;99.90;;;;;;5014939;28;20406;-81
2024/03/10 09:40:40;;;;;;;27.52;19.50;;;9.00;99.90;;;;;;5014081;28;20175;-81
2024/03/10 09:43:11;;;;;;;32.17;20.40;;;9.00;99.90;;;;;;5010827;28;20042;-82
2024/03/10 09:45:43;;;;;;;31.23;20.30;;;9.10;99.90;;;;;;5012060;28;20030;-81
2024/03/10 09:48:09;;;;;;;33.55;20.23;;;9.10;99.90;;;;;;5012890;28;20029;-80
2024/03/10 09:50:48;;;;;;;31.35;21.27;;;9.30;99.90;;;;;;5003456;28;20045;-81
2024/03/10 09:53:15;;;;;;;34.72;21.77;;;9.30;99.90;;;;;;5007221;28;20034;-80
2024/03/10 09:55:44;;;;;;;33.28;19.60;;;9.40;99.90;;;;;;5019851;28;20063;-81
2024/03/10 09:58:15;;;;;;;29.60;20.35;;;9.50;99.90;;;;;;5011735;28;20542;-81
2024/03/10 10:00:47;;;;;;;26.77;18.60;;;9.70;99.90;;;;;;5006859;28;20054;-81
2024/03/10 10:03:15;;;;;;;31.75;20.45;;;9.80;99.90;;;;;;5009704;28;20097;-81
2024/03/10 10:05:46;;;;;;;29.42;19.65;;;9.90;99.90;;;;;;5007326;28;20022;-81
2024/03/10 10:08:13;;;;;;;30.73;20.50;;;9.90;99.90;;;;;;5001464;28;20311;-79
2024/03/10 10:10:42;;;;;;;29.40;18.45;;;10.00;99.90;;;;;;5014786;28;20080;-82
2024/03/10 10:13:08;;;;;;;27.77;19.45;;;10.10;99.90;;;;;;5019840;28;20367;-81
2024/03/10 10:15:34;;;;;;;27.17;19.08;;;10.20;99.90;;;;;;5010229;28;20033;-82
2024/03/10 10:18:02;;;;;;;29.17;20.80;;;10.30;99.90;;;;;;5010168;28;20034;-80
2024/03/10 10:20:32;;;;;;;27.42;18.80;;;10.40;99.90;;;;;;4997001;28;20037;-81
2024/03/10 10:23:06;;;;;;;27.80;19.85;;;10.50;99.90;;;;;;5010899;28;20102;-82
2024/03/10 10:25:35;;;;;;;25.75;17.65;;;10.50;99.90;;;;;;5003088;28;20030;-81
2024/03/10 10:28:02;;;;;;;28.20;19.45;;;10.40;99.90;;;;;;5007851;28;20028;-80
2024/03/10 10:30:29;;;;;;;29.10;18.95;;;10.50;99.90;;;;;;5002979;28;20156;-81
2024/03/10 10:33:11;;;;;;;27.08;19.40;;;10.50;99.90;;;;;;5000316;28;20498;-81
2024/03/10 10:35:42;;;;;;;29.60;19.73;;;10.60;99.90;;;;;;4991433;28;20040;-81
2024/03/10 10:38:12;;;;;;;28.60;19.30;;;10.60;99.90;;;;;;5002895;28;20072;-79
2024/03/10 10:40:41;;;;;;;26.63;17.92;;;10.70;99.90;;;;;;4999490;28;20025;-80
2024/03/10 10:43:08;;;;;;;25.45;17.35;;;10.70;99.90;;;;;;5000083;28;20053;-81
2024/03/10 10:45:34;;;;;;;27.05;17.92;;;10.70;99.90;;;;;;4999556;28;20025;-80
2024/03/10 10:48:01;;;;;;;27.65;17.88;;;10.70;99.90;;;;;;4989253;28;20037;-80
2024/03/10 10:50:37;;;;;;;27.27;19.55;;;10.70;99.90;;;;;;4988072;28;20030;-80
2024/03/10 10:53:05;;;;;;;27.27;18.75;;;10.70;99.90;;;;;;5004211;28;20079;-80
2024/03/10 10:55:32;;;;;;;29.67;19.02;;;10.80;99.90;;;;;;4991316;28;20030;-80
2024/03/10 10:58:21;;;;;;;26.55;18.65;;;10.80;99.90;;;;;;4998672;28;22516;-81
2024/03/10 11:00:51;;;;;;;27.27;18.45;;;10.90;99.90;;;;;;4986993;28;20050;-81
2024/03/10 11:03:18;;;;;;;25.35;18.33;;;10.90;99.90;;;;;;5002362;28;20025;-80
2024/03/10 11:06:15;;;;;;;26.33;17.38;;;10.80;99.90;;;;;;4984392;28;20037;-81
2024/03/10 11:08:45;;;;;;;27.30;18.88;;;10.70;99.90;;;;;;4989338;28;20018;-81
2024/03/10 11:11:14;;;;;;;28.88;19.73;;;10.70;99.90;;;;;;4987722;28;20025;-80
2024/03/10 11:13:40;;;;;;;28.55;18.20;;;10.60;99.90;;;;;;5008804;28;20026;-81
2024/03/10 11:16:14;;;;;;;28.52;19.50;;;10.40;99.90;;;;;;4996757;28;20095;-81
2024/03/10 11:18:41;;;;;;;27.35;18.25;;;10.40;99.90;;;;;;4991160;28;20037;-81
2024/03/10 11:21:17;;;;;;;26.33;18.38;;;10.30;99.90;;;;;;4991924;28;20025;-80
2024/03/10 11:23:45;;;;;;;26.67;18.63;;;10.30;99.90;;;;;;4979759;28;20032;-81
2024/03/10 11:26:16;;;;;;;27.83;18.60;;;10.30;99.90;;;;;;4986086;28;20030;-80
2024/03/10 11:28:52;;;;;;;28.77;18.52;;;10.30;99.90;;;;;;5000666;28;20025;-80
2024/03/10 11:31:39;;;;;;;28.40;19.30;;;10.20;99.90;;;;;;4995667;28;20238;-80
2024/03/10 11:34:07;;;;;;;26.92;18.27;;;10.20;99.90;;;;;;4992118;28;20040;-81
2024/03/10 11:36:42;;;;;;;29.52;19.38;;;10.20;99.90;;;;;;4985846;28;20030;-80
2024/03/10 11:39:07;;;;;;;26.02;17.70;;;10.20;99.90;;;;;;4985572;28;20041;-81
2024/03/10 11:41:34;;;;;;;30.25;18.75;;;10.30;99.90;;;;;;4975039;28;20034;-81
2024/03/10 11:43:59;;;;;;;24.73;18.55;;;10.30;99.90;;;;;;4993076;28;20025;-82
2024/03/10 11:46:29;;;;;;;29.67;19.77;;;10.20;99.90;;;;;;4991571;28;20030;-81
2024/03/10 11:48:55;;;;;;;27.23;18.27;;;10.40;99.90;;;;;;4993960;28;20020;-81
2024/03/10 11:51:33;;;;;;;25.70;17.80;;;10.50;99.90;;;;;;4994988;28;20036;-81
2024/03/10 11:54:00;;;;;;;25.95;18.75;;;10.60;99.90;;;;;;4977942;28;20041;-80
2024/03/10 11:56:25;;;;;;;25.98;18.33;;;10.60;99.90;;;;;;4970453;28;20120;-81
2024/03/10 11:58:52;;;;;;;26.15;18.42;;;10.70;99.90;;;;;;4990337;28;20076;-81
2024/03/10 12:01:18;;;;;;;24.58;18.08;;;10.70;99.90;;;;;;4997929;28;20034;-81
2024/03/10 12:03:49;;;;;;;27.92;18.63;;;10.80;99.90;;;;;;4976317;28;20848;-79
2024/03/10 12:06:16;;;;;;;26.20;18.10;;;10.80;99.90;;;;;;4981451;28;20037;-81
2024/03/10 12:08:42;;;;;;;28.02;18.92;;;10.80;99.90;;;;;;4969427;28;20071;-81
2024/03/10 12:11:12;;;;;;;28.05;18.83;;;10.80;99.90;;;;;;4982934;28;20045;-79
2024/03/10 12:13:49;;;;;;;27.65;19.98;;;10.80;99.90;;;;;;4983703;28;20033;-81
2024/03/10 12:16:15;;;;;;;26.70;17.95;;;10.80;99.90;;;;;;4987266;28;20034;-82
2024/03/10 12:18:41;;;;;;;27.23;19.00;;;10.80;99.90;;;;;;4974854;28;20109;-79
2024/03/10 12:21:15;;;;;;;29.80;19.17;;;10.90;99.90;;;;;;4980729;28;20052;-81
2024/03/10 12:23:42;;;;;;;26.98;18.52;;;10.90;99.90;;;;;;4981020;28;20033;-80
2024/03/10 12:26:12;;;;;;;30.00;19.98;;;10.90;99.90;;;;;;4985309;28;20017;-81
2024/03/10 12:28:38;;;;;;;31.20;19.88;;;10.90;99.90;;;;;;4980778;28;20264;-81
2024/03/10 12:31:09;;;;;;;29.42;19.73;;;11.00;99.90;;;;;;4984781;28;20030;-81
2024/03/10 12:33:36;;;;;;;27.67;19.13;;;11.00;99.90;;;;;;4982397;28;20018;-81
2024/03/10 12:36:03;;;;;;;27.20;19.40;;;11.10;99.90;;;;;;4969196;28;20022;-81
2024/03/10 12:38:29;;;;;;;30.67;20.27;;;11.10;99.90;;;;;;4969750;28;20038;-81
2024/03/10 12:40:55;;;;;;;26.20;19.35;;;11.10;99.90;;;;;;4988084;28;20025;-80
2024/03/10 12:43:21;;;;;;;29.77;19.23;;;11.10;99.90;;;;;;4984070;28;20022;-80
2024/03/10 12:45:48;;;;;;;26.20;19.33;;;11.10;99.90;;;;;;4967786;28;20026;-79
2024/03/10 12:48:14;;;;;;;29.45;20.05;;;11.10;99.90;;;;;;4978613;28;20065;-80
2024/03/10 12:50:40;;;;;;;28.45;18.27;;;11.20;99.90;;;;;;4966182;28;20053;-81
2024/03/10 12:53:06;;;;;;;28.33;20.00;;;11.20;99.90;;;;;;4985095;28;20518;-80
2024/03/10 12:55:34;;;;;;;29.38;20.02;;;11.30;99.90;;;;;;4967969;28;20470;-78
2024/03/10 12:58:00;;;;;;;28.35;19.15;;;11.40;99.90;;;;;;4997009;28;20046;-80